createdAt,value
2016-12-01T00:00:10.182Z,101646
2016-12-01T00:01:08.916Z,101642
2016-12-01T00:02:10.333Z,101646
2016-12-01T00:03:08.962Z,101642
2016-12-01T00:04:10.420Z,101640
2016-12-01T00:05:10.520Z,101642
2016-12-01T00:06:10.491Z,101646
2016-12-01T00:07:10.560Z,101638
2016-12-01T00:08:09.239Z,101642
2016-12-01T00:09:10.645Z,101637
2016-12-01T00:10:09.360Z,101641
2016-12-01T00:11:10.700Z,101641
2016-12-01T00:12:10.773Z,101641
2016-12-01T00:13:10.791Z,101640
2016-12-01T00:14:09.474Z,101638
2016-12-01T00:15:10.917Z,101633
2016-12-01T00:16:11.013Z,101636
2016-12-01T00:17:09.656Z,101633
2016-12-01T00:18:11.078Z,101638
2016-12-01T00:19:11.114Z,101628
2016-12-01T00:20:11.237Z,101634
2016-12-01T00:21:11.257Z,101637
2016-12-01T00:22:09.918Z,101639
2016-12-01T00:23:09.933Z,101638
2016-12-01T00:24:10.026Z,101636
2016-12-01T00:25:10.139Z,101631
2016-12-01T00:26:10.164Z,101625
2016-12-01T00:27:10.198Z,101626
2016-12-01T00:28:11.655Z,101623
2016-12-01T00:29:10.292Z,101621
2016-12-01T00:30:11.680Z,101621
2016-12-01T00:31:10.355Z,101615
2016-12-01T00:32:10.387Z,101620
2016-12-01T00:33:10.496Z,101617
2016-12-01T00:34:11.841Z,101623
2016-12-01T00:35:10.516Z,101613
2016-12-01T00:36:11.912Z,101616
2016-12-01T00:37:10.609Z,101621
2016-12-01T00:38:10.692Z,101619
2016-12-01T00:39:12.050Z,101619
2016-12-01T00:40:12.082Z,101614
2016-12-01T00:41:12.122Z,101610
2016-12-01T00:42:10.802Z,101617
2016-12-01T00:43:12.225Z,101615
2016-12-01T00:44:10.960Z,101619
2016-12-01T00:45:10.911Z,101617
2016-12-01T00:46:12.382Z,101615
2016-12-01T00:47:12.435Z,101611
2016-12-01T00:48:12.448Z,101613
2016-12-01T00:49:11.078Z,101612
2016-12-01T00:50:11.132Z,101602
2016-12-01T00:51:11.179Z,101609
2016-12-01T00:52:12.622Z,101612
2016-12-01T00:53:11.321Z,101612
2016-12-01T00:54:12.624Z,101612
2016-12-01T00:55:12.701Z,101599
2016-12-01T00:56:11.396Z,101610
2016-12-01T00:57:11.463Z,101607
2016-12-01T00:58:11.572Z,101604
2016-12-01T00:59:12.974Z,101601
2016-12-01T01:00:11.689Z,101601
2016-12-01T01:01:11.722Z,101608
2016-12-01T01:02:13.232Z,101605
2016-12-01T01:03:13.238Z,101610
2016-12-01T01:04:11.909Z,101603
2016-12-01T01:05:13.357Z,101603
2016-12-01T01:06:12.096Z,101601
2016-12-01T01:07:12.132Z,101603
2016-12-01T01:08:13.544Z,101605
2016-12-01T01:09:12.225Z,101602
2016-12-01T01:10:13.596Z,101598
2016-12-01T01:11:12.288Z,101598
2016-12-01T01:12:12.244Z,101598
2016-12-01T01:13:12.301Z,101597
2016-12-01T01:14:12.427Z,101601
2016-12-01T01:15:12.480Z,101600
2016-12-01T01:16:12.509Z,101602
2016-12-01T01:17:13.973Z,101599
2016-12-01T01:18:12.684Z,101608
2016-12-01T01:19:14.130Z,101600
2016-12-01T01:20:14.144Z,101608
2016-12-01T01:21:12.814Z,101606
2016-12-01T01:22:14.287Z,101607
2016-12-01T01:23:12.951Z,101601
2016-12-01T01:24:14.322Z,101602
2016-12-01T01:25:14.387Z,101601
2016-12-01T01:26:14.366Z,101595
2016-12-01T01:27:14.402Z,101602
2016-12-01T01:28:13.101Z,101597
2016-12-01T01:29:14.594Z,101589
2016-12-01T01:30:13.255Z,101587
2016-12-01T01:31:13.304Z,101586
2016-12-01T01:32:14.746Z,101587
2016-12-01T01:33:13.365Z,101582
2016-12-01T01:34:13.485Z,101585
2016-12-01T01:35:13.528Z,101588
2016-12-01T01:36:13.562Z,101580
2016-12-01T01:37:13.617Z,101583
2016-12-01T01:38:15.032Z,101584
2016-12-01T01:39:15.170Z,101581
2016-12-01T01:40:13.844Z,101581
2016-12-01T01:41:13.908Z,101581
2016-12-01T01:42:13.860Z,101584
2016-12-01T01:43:15.265Z,101583
2016-12-01T01:44:15.363Z,101579
2016-12-01T01:45:14.001Z,101571
2016-12-01T01:46:15.364Z,101576
2016-12-01T01:47:15.424Z,101576
2016-12-01T01:48:14.164Z,101571
2016-12-01T01:49:14.184Z,101575
2016-12-01T01:50:15.606Z,101574
2016-12-01T01:51:15.686Z,101569
2016-12-01T01:52:14.368Z,101568
2016-12-01T01:53:15.761Z,101569
2016-12-01T01:54:14.485Z,101567
2016-12-01T01:55:15.876Z,101569
2016-12-01T01:56:15.940Z,101564
2016-12-01T01:57:14.611Z,101565
2016-12-01T01:58:16.102Z,101566
2016-12-01T01:59:14.814Z,101569
2016-12-01T02:00:14.939Z,101556
2016-12-01T02:01:16.255Z,101552
2016-12-01T02:02:14.935Z,101556
2016-12-01T02:03:14.969Z,101551
2016-12-01T02:04:15.101Z,101550
2016-12-01T02:05:15.177Z,101548
2016-12-01T02:06:15.245Z,101549
2016-12-01T02:07:15.279Z,101544
2016-12-01T02:08:16.626Z,101546
2016-12-01T02:09:15.297Z,101547
2016-12-01T02:10:15.430Z,101547
2016-12-01T02:11:16.819Z,101552
2016-12-01T02:12:15.476Z,101554
2016-12-01T02:13:15.485Z,101552
2016-12-01T02:14:15.547Z,101547
2016-12-01T02:15:16.989Z,101550
2016-12-01T02:16:17.031Z,101550
2016-12-01T02:17:15.663Z,101553
2016-12-01T02:18:16.307Z,101560
2016-12-01T02:19:15.764Z,101558
2016-12-01T02:20:15.882Z,101565
2016-12-01T02:21:17.306Z,101565
2016-12-01T02:22:17.384Z,101566
2016-12-01T02:23:16.034Z,101570
2016-12-01T02:24:16.160Z,101559
2016-12-01T02:25:16.247Z,101568
2016-12-01T02:26:17.630Z,101562
2016-12-01T02:27:16.277Z,101567
2016-12-01T02:28:17.762Z,101564
2016-12-01T02:29:17.776Z,101566
2016-12-01T02:30:17.748Z,101558
2016-12-01T02:31:16.473Z,101557
2016-12-01T02:32:16.583Z,101552
2016-12-01T02:33:16.569Z,101550
2016-12-01T02:34:17.959Z,101549
2016-12-01T02:35:17.957Z,101545
2016-12-01T02:36:16.675Z,101541
2016-12-01T02:37:16.757Z,101542
2016-12-01T02:38:16.765Z,101539
2016-12-01T02:39:16.869Z,101537
2016-12-01T02:40:16.884Z,101535
2016-12-01T02:41:18.265Z,101532
2016-12-01T02:42:18.246Z,101531
2016-12-01T02:43:16.915Z,101525
2016-12-01T02:44:18.336Z,101525
2016-12-01T02:45:18.480Z,101522
2016-12-01T02:46:17.173Z,101522
2016-12-01T02:47:17.242Z,101525
2016-12-01T02:48:17.326Z,101523
2016-12-01T02:49:18.693Z,101524
2016-12-01T02:50:17.340Z,101528
2016-12-01T02:51:17.315Z,101520
2016-12-01T02:52:17.391Z,101519
2016-12-01T02:53:17.473Z,101521
2016-12-01T02:54:17.619Z,101524
2016-12-01T02:55:19.005Z,101529
2016-12-01T02:56:19.052Z,101521
2016-12-01T02:57:19.042Z,101512
2016-12-01T02:58:19.073Z,101512
2016-12-01T02:59:17.865Z,101519
2016-12-01T03:00:17.902Z,101517
2016-12-01T03:01:17.998Z,101517
2016-12-01T03:02:19.452Z,101522
2016-12-01T03:03:19.423Z,101516
2016-12-01T03:04:19.520Z,101521
2016-12-01T03:05:19.604Z,101519
2016-12-01T03:06:18.319Z,101523
2016-12-01T03:07:18.488Z,101521
2016-12-01T03:08:18.413Z,101522
2016-12-01T03:09:19.863Z,101521
2016-12-01T03:10:19.870Z,101519
2016-12-01T03:11:19.899Z,101521
2016-12-01T03:12:20.019Z,101518
2016-12-01T03:13:18.721Z,101514
2016-12-01T03:14:18.726Z,101518
2016-12-01T03:15:20.134Z,101516
2016-12-01T03:16:20.130Z,101519
2016-12-01T03:17:20.221Z,101512
2016-12-01T03:18:20.213Z,101509
2016-12-01T03:19:18.988Z,101511
2016-12-01T03:20:18.867Z,101514
2016-12-01T03:21:18.958Z,101513
2016-12-01T03:22:18.968Z,101513
2016-12-01T03:23:20.393Z,101514
2016-12-01T03:24:20.448Z,101510
2016-12-01T03:25:19.135Z,101507
2016-12-01T03:26:19.043Z,101507
2016-12-01T03:27:20.500Z,101510
2016-12-01T03:28:20.552Z,101511
2016-12-01T03:29:20.597Z,101512
2016-12-01T03:30:20.729Z,101505
2016-12-01T03:31:20.729Z,101508
2016-12-01T03:32:20.728Z,101511
2016-12-01T03:33:20.856Z,101509
2016-12-01T03:34:20.903Z,101506
2016-12-01T03:35:19.629Z,101508
2016-12-01T03:36:19.725Z,101504
2016-12-01T03:37:21.027Z,101503
2016-12-01T03:38:19.776Z,101503
2016-12-01T03:39:21.152Z,101505
2016-12-01T03:40:19.830Z,101502
2016-12-01T03:41:19.915Z,101501
2016-12-01T03:42:21.243Z,101491
2016-12-01T03:43:19.955Z,101491
2016-12-01T03:44:21.435Z,101501
2016-12-01T03:45:21.530Z,101503
2016-12-01T03:46:22.268Z,101506
2016-12-01T03:47:20.322Z,101504
2016-12-01T03:48:21.696Z,101504
2016-12-01T03:49:21.791Z,101496
2016-12-01T03:50:21.826Z,101499
2016-12-01T03:51:23.475Z,101511
2016-12-01T03:52:20.960Z,101511
2016-12-01T03:53:23.340Z,101511
2016-12-01T03:54:20.537Z,101512
2016-12-01T03:55:21.862Z,101509
2016-12-01T03:56:20.573Z,101503
2016-12-01T03:57:20.636Z,101500
2016-12-01T03:58:22.039Z,101504
2016-12-01T03:59:22.150Z,101499
2016-12-01T04:00:20.797Z,101496
2016-12-01T04:01:22.212Z,101499
2016-12-01T04:02:22.320Z,101503
2016-12-01T04:03:22.425Z,101504
2016-12-01T04:04:22.497Z,101505
2016-12-01T04:05:21.275Z,101505
2016-12-01T04:06:22.697Z,101498
2016-12-01T04:07:22.626Z,101498
2016-12-01T04:08:21.385Z,101499
2016-12-01T04:09:22.888Z,101499
2016-12-01T04:10:22.917Z,101490
2016-12-01T04:11:21.496Z,101490
2016-12-01T04:12:22.969Z,101489
2016-12-01T04:13:21.680Z,101486
2016-12-01T04:14:21.725Z,101479
2016-12-01T04:15:21.797Z,101478
2016-12-01T04:16:21.880Z,101482
2016-12-01T04:17:21.996Z,101478
2016-12-01T04:18:21.950Z,101468
2016-12-01T04:19:23.451Z,101472
2016-12-01T04:20:24.351Z,101468
2016-12-01T04:21:22.236Z,101461
2016-12-01T04:22:22.274Z,101471
2016-12-01T04:23:23.566Z,101471
2016-12-01T04:24:23.706Z,101465
2016-12-01T04:25:22.513Z,101462
2016-12-01T04:26:22.449Z,101460
2016-12-01T04:27:23.834Z,101455
2016-12-01T04:28:23.906Z,101458
2016-12-01T04:29:23.878Z,101454
2016-12-01T04:30:22.458Z,101453
2016-12-01T04:31:22.595Z,101455
2016-12-01T04:32:24.010Z,101453
2016-12-01T04:33:22.707Z,101444
2016-12-01T04:34:22.667Z,101449
2016-12-01T04:35:22.752Z,101444
2016-12-01T04:36:22.790Z,101445
2016-12-01T04:37:24.189Z,101439
2016-12-01T04:38:22.806Z,101445
2016-12-01T04:39:22.896Z,101439
2016-12-01T04:40:24.322Z,101442
2016-12-01T04:41:24.399Z,101435
2016-12-01T04:42:24.369Z,101446
2016-12-01T04:43:23.084Z,101446
2016-12-01T04:44:24.507Z,101434
2016-12-01T04:45:24.584Z,101435
2016-12-01T04:46:23.269Z,101441
2016-12-01T04:47:23.236Z,101437
2016-12-01T04:48:24.665Z,101448
2016-12-01T04:49:24.750Z,101440
2016-12-01T04:50:23.438Z,101445
2016-12-01T04:51:24.847Z,101446
2016-12-01T04:52:23.448Z,101443
2016-12-01T04:53:23.515Z,101446
2016-12-01T04:54:23.527Z,101447
2016-12-01T04:55:23.649Z,101452
2016-12-01T04:56:23.739Z,101453
2016-12-01T04:57:23.831Z,101446
2016-12-01T04:58:25.180Z,101448
2016-12-01T04:59:23.866Z,101437
2016-12-01T05:00:25.320Z,101440
2016-12-01T05:01:23.974Z,101448
2016-12-01T05:02:25.357Z,101446
2016-12-01T05:03:25.430Z,101455
2016-12-01T05:04:24.088Z,101450
2016-12-01T05:05:25.555Z,101454
2016-12-01T05:06:25.542Z,101451
2016-12-01T05:07:25.587Z,101458
2016-12-01T05:08:25.653Z,101459
2016-12-01T05:09:24.350Z,101458
2016-12-01T05:10:24.359Z,101457
2016-12-01T05:11:24.447Z,101457
2016-12-01T05:12:25.895Z,101454
2016-12-01T05:13:24.615Z,101454
2016-12-01T05:14:24.701Z,101452
2016-12-01T05:15:24.664Z,101453
2016-12-01T05:16:26.082Z,101444
2016-12-01T05:17:26.156Z,101443
2016-12-01T05:18:24.878Z,101440
2016-12-01T05:19:26.302Z,101431
2016-12-01T05:20:24.949Z,101440
2016-12-01T05:21:26.396Z,101442
2016-12-01T05:22:25.135Z,101440
2016-12-01T05:23:25.180Z,101440
2016-12-01T05:24:25.132Z,101442
2016-12-01T05:25:25.163Z,101441
2016-12-01T05:26:26.531Z,101441
2016-12-01T05:27:25.291Z,101433
2016-12-01T05:28:25.312Z,101436
2016-12-01T05:29:25.388Z,101437
2016-12-01T05:30:25.496Z,101433
2016-12-01T05:31:26.906Z,101433
2016-12-01T05:32:26.939Z,101439
2016-12-01T05:33:27.049Z,101439
2016-12-01T05:34:25.678Z,101435
2016-12-01T05:35:27.149Z,101433
2016-12-01T05:36:25.827Z,101422
2016-12-01T05:37:27.207Z,101427
2016-12-01T05:38:27.286Z,101416
2016-12-01T05:39:26.020Z,101418
2016-12-01T05:40:27.424Z,101423
2016-12-01T05:41:26.053Z,101425
2016-12-01T05:42:27.473Z,101421
2016-12-01T05:43:27.515Z,101415
2016-12-01T05:44:27.585Z,101425
2016-12-01T05:45:26.180Z,101425
2016-12-01T05:46:26.233Z,101424
2016-12-01T05:47:27.651Z,101417
2016-12-01T05:48:26.293Z,101419
2016-12-01T05:49:27.670Z,101411
2016-12-01T05:50:27.845Z,101418
2016-12-01T05:51:26.431Z,101409
2016-12-01T05:52:26.446Z,101418
2016-12-01T05:53:26.473Z,101412
2016-12-01T05:54:27.911Z,101405
2016-12-01T05:55:26.639Z,101409
2016-12-01T05:56:28.013Z,101412
2016-12-01T05:57:26.609Z,101417
2016-12-01T05:58:26.683Z,101417
2016-12-01T05:59:28.129Z,101423
2016-12-01T06:00:28.242Z,101425
2016-12-01T06:01:26.935Z,101429
2016-12-01T06:02:28.347Z,101435
2016-12-01T06:03:27.040Z,101430
2016-12-01T06:04:27.145Z,101425
2016-12-01T06:05:27.139Z,101430
2016-12-01T06:06:27.238Z,101425
2016-12-01T06:07:27.327Z,101427
2016-12-01T06:08:27.305Z,101423
2016-12-01T06:09:27.350Z,101427
2016-12-01T06:10:28.766Z,101424
2016-12-01T06:11:28.772Z,101421
2016-12-01T06:12:28.864Z,101415
2016-12-01T06:13:28.927Z,101425
2016-12-01T06:14:27.597Z,101425
2016-12-01T06:15:29.032Z,101421
2016-12-01T06:16:29.134Z,101424
2016-12-01T06:17:27.773Z,101421
2016-12-01T06:18:27.845Z,101416
2016-12-01T06:19:29.231Z,101424
2016-12-01T06:20:29.268Z,101423
2016-12-01T06:21:27.883Z,101424
2016-12-01T06:22:27.920Z,101423
2016-12-01T06:23:28.029Z,101421
2016-12-01T06:24:28.056Z,101419
2016-12-01T06:25:29.553Z,101410
2016-12-01T06:26:28.256Z,101411
2016-12-01T06:27:29.706Z,101413
2016-12-01T06:28:28.352Z,101416
2016-12-01T06:29:29.731Z,101414
2016-12-01T06:30:28.423Z,101409
2016-12-01T06:31:28.462Z,101409
2016-12-01T06:32:29.866Z,101411
2016-12-01T06:33:28.530Z,101403
2016-12-01T06:34:28.578Z,101413
2016-12-01T06:35:28.737Z,101413
2016-12-01T06:36:30.139Z,101399
2016-12-01T06:37:30.177Z,101403
2016-12-01T06:38:28.876Z,101402
2016-12-01T06:39:28.983Z,101405
2016-12-01T06:40:30.392Z,101400
2016-12-01T06:41:30.409Z,101408
2016-12-01T06:42:30.486Z,101402
2016-12-01T06:43:30.628Z,101404
2016-12-01T06:44:30.701Z,101401
2016-12-01T06:45:30.773Z,101396
2016-12-01T06:46:29.458Z,101404
2016-12-01T06:47:30.853Z,101405
2016-12-01T06:48:29.466Z,101401
2016-12-01T06:49:29.460Z,101405
2016-12-01T06:50:30.988Z,101397
2016-12-01T06:51:29.701Z,101408
2016-12-01T06:52:31.039Z,101404
2016-12-01T06:53:29.716Z,101408
2016-12-01T06:54:31.148Z,101406
2016-12-01T06:55:31.222Z,101405
2016-12-01T06:56:31.280Z,101407
2016-12-01T06:57:31.316Z,101404
2016-12-01T06:58:31.320Z,101399
2016-12-01T06:59:31.416Z,101402
2016-12-01T07:00:32.320Z,101395
2016-12-01T07:01:30.244Z,101402
2016-12-01T07:02:31.641Z,101399
2016-12-01T07:03:31.666Z,101401
2016-12-01T07:04:30.420Z,101396
2016-12-01T07:05:30.349Z,101397
2016-12-01T07:06:30.479Z,101396
2016-12-01T07:07:31.868Z,101392
2016-12-01T07:08:30.600Z,101392
2016-12-01T07:09:31.973Z,101395
2016-12-01T07:10:30.612Z,101390
2016-12-01T07:11:32.613Z,101391
2016-12-01T07:12:32.079Z,101384
2016-12-01T07:13:32.079Z,101395
2016-12-01T07:14:30.841Z,101387
2016-12-01T07:15:32.285Z,101389
2016-12-01T07:16:32.342Z,101391
2016-12-01T07:17:32.429Z,101392
2016-12-01T07:18:32.494Z,101380
2016-12-01T07:19:31.195Z,101391
2016-12-01T07:20:31.254Z,101386
2016-12-01T07:21:32.697Z,101394
2016-12-01T07:22:32.048Z,101394
2016-12-01T07:23:31.389Z,101402
2016-12-01T07:24:31.526Z,101393
2016-12-01T07:25:31.489Z,101403
2016-12-01T07:26:33.017Z,101405
2016-12-01T07:27:31.738Z,101405
2016-12-01T07:28:31.676Z,101406
2016-12-01T07:29:31.723Z,101412
2016-12-01T07:30:31.814Z,101402
2016-12-01T07:31:31.804Z,101403
2016-12-01T07:32:31.782Z,101404
2016-12-01T07:33:31.810Z,101394
2016-12-01T07:34:31.917Z,101407
2016-12-01T07:35:32.003Z,101407
2016-12-01T07:36:31.962Z,101411
2016-12-01T07:37:33.391Z,101411
2016-12-01T07:38:33.398Z,101412
2016-12-01T07:39:33.445Z,101413
2016-12-01T07:40:33.509Z,101410
2016-12-01T07:41:33.477Z,101412
2016-12-01T07:42:32.192Z,101400
2016-12-01T07:43:33.632Z,101411
2016-12-01T07:44:32.300Z,101407
2016-12-01T07:45:32.289Z,101411
2016-12-01T07:46:33.526Z,101402
2016-12-01T07:47:32.531Z,101409
2016-12-01T07:48:34.493Z,101417
2016-12-01T07:49:32.572Z,101411
2016-12-01T07:50:32.631Z,101415
2016-12-01T07:51:33.995Z,101415
2016-12-01T07:52:34.114Z,101404
2016-12-01T07:53:34.106Z,101409
2016-12-01T07:54:32.766Z,101413
2016-12-01T07:55:34.860Z,101408
2016-12-01T07:56:34.996Z,101401
2016-12-01T07:57:33.661Z,101405
2016-12-01T07:58:33.038Z,101405
2016-12-01T07:59:33.105Z,101410
2016-12-01T08:00:33.094Z,101408
2016-12-01T08:01:34.473Z,101408
2016-12-01T08:02:34.547Z,101404
2016-12-01T08:03:34.613Z,101407
2016-12-01T08:04:33.309Z,101417
2016-12-01T08:05:33.376Z,101406
2016-12-01T08:06:34.132Z,101410
2016-12-01T08:07:33.532Z,101412
2016-12-01T08:08:36.157Z,101410
2016-12-01T08:09:36.095Z,101401
2016-12-01T08:10:35.673Z,101408
2016-12-01T08:11:35.737Z,101406
2016-12-01T08:12:33.745Z,101405
2016-12-01T08:13:35.207Z,101398
2016-12-01T08:14:35.247Z,101400
2016-12-01T08:15:33.892Z,101404
2016-12-01T08:16:36.042Z,101403
2016-12-01T08:17:35.379Z,101407
2016-12-01T08:18:35.485Z,101407
2016-12-01T08:19:34.200Z,101408
2016-12-01T08:20:36.118Z,101406
2016-12-01T08:21:34.785Z,101402
2016-12-01T08:22:35.620Z,101410
2016-12-01T08:23:35.675Z,101402
2016-12-01T08:24:34.384Z,101401
2016-12-01T08:25:34.493Z,101402
2016-12-01T08:26:35.888Z,101407
2016-12-01T08:27:35.888Z,101405
2016-12-01T08:28:35.859Z,101402
2016-12-01T08:29:34.503Z,101401
2016-12-01T08:30:35.882Z,101400
2016-12-01T08:31:34.527Z,101392
2016-12-01T08:32:34.613Z,101385
2016-12-01T08:33:35.930Z,101383
2016-12-01T08:34:34.625Z,101381
2016-12-01T08:35:36.008Z,101380
2016-12-01T08:36:37.385Z,101376
2016-12-01T08:37:36.067Z,101374
2016-12-01T08:38:36.168Z,101374
2016-12-01T08:39:36.172Z,101378
2016-12-01T08:40:36.181Z,101377
2016-12-01T08:41:36.299Z,101381
2016-12-01T08:42:37.043Z,101376
2016-12-01T08:43:36.315Z,101378
2016-12-01T08:44:35.063Z,101381
2016-12-01T08:45:35.102Z,101377
2016-12-01T08:46:36.602Z,101365
2016-12-01T08:47:37.217Z,101372
2016-12-01T08:48:36.681Z,101369
2016-12-01T08:49:36.202Z,101368
2016-12-01T08:50:35.507Z,101369
2016-12-01T08:51:38.183Z,101373
2016-12-01T08:52:37.664Z,101381
2016-12-01T08:53:37.176Z,101379
2016-12-01T08:54:39.063Z,101375
2016-12-01T08:55:35.793Z,101373
2016-12-01T08:56:37.147Z,101370
2016-12-01T08:57:37.228Z,101373
2016-12-01T08:58:36.381Z,101363
2016-12-01T08:59:35.859Z,101377
2016-12-01T09:00:37.249Z,101368
2016-12-01T09:01:37.967Z,101368
2016-12-01T09:02:37.315Z,101368
2016-12-01T09:03:35.979Z,101369
2016-12-01T09:04:38.108Z,101358
2016-12-01T09:05:36.168Z,101369
2016-12-01T09:06:36.967Z,101367
2016-12-01T09:07:38.809Z,101364
2016-12-01T09:08:37.773Z,101361
2016-12-01T09:09:37.801Z,101362
2016-12-01T09:10:37.932Z,101363
2016-12-01T09:11:37.426Z,101362
2016-12-01T09:12:38.069Z,101355
2016-12-01T09:13:38.174Z,101363
2016-12-01T09:14:38.176Z,101361
2016-12-01T09:15:38.872Z,101359
2016-12-01T09:16:38.277Z,101356
2016-12-01T09:17:38.364Z,101353
2016-12-01T09:18:40.372Z,101340
2016-12-01T09:19:38.486Z,101337
2016-12-01T09:20:39.896Z,101340
2016-12-01T09:21:38.577Z,101337
2016-12-01T09:22:39.658Z,101338
2016-12-01T09:23:38.687Z,101327
2016-12-01T09:24:40.673Z,101315
2016-12-01T09:25:37.494Z,101318
2016-12-01T09:26:38.849Z,101328
2016-12-01T09:27:38.413Z,101325
2016-12-01T09:28:39.772Z,101320
2016-12-01T09:29:40.290Z,101313
2016-12-01T09:30:37.651Z,101327
2016-12-01T09:31:37.914Z,101321
2016-12-01T09:32:39.821Z,101329
2016-12-01T09:33:37.849Z,101330
2016-12-01T09:34:40.492Z,101341
2016-12-01T09:35:39.988Z,101332
2016-12-01T09:36:37.982Z,101341
2016-12-01T09:37:41.570Z,101329
2016-12-01T09:38:38.164Z,101341
2016-12-01T09:39:38.850Z,101336
2016-12-01T09:40:39.589Z,101326
2016-12-01T09:41:42.123Z,101336
2016-12-01T09:42:38.308Z,101330
2016-12-01T09:43:38.422Z,101329
2016-12-01T09:44:39.151Z,101323
2016-12-01T09:45:38.552Z,101326
2016-12-01T09:46:41.290Z,101319
2016-12-01T09:47:40.703Z,101325
2016-12-01T09:48:40.705Z,101330
2016-12-01T09:49:38.793Z,101330
2016-12-01T09:50:39.601Z,101332
2016-12-01T09:51:41.622Z,101333
2016-12-01T09:52:40.763Z,101335
2016-12-01T09:53:41.084Z,101336
2016-12-01T09:54:42.449Z,101337
2016-12-01T09:55:40.549Z,101340
2016-12-01T09:56:41.855Z,101337
2016-12-01T09:57:41.253Z,101340
2016-12-01T09:58:40.706Z,101342
2016-12-01T09:59:41.525Z,101335
2016-12-01T10:00:42.554Z,101336
2016-12-01T10:01:43.773Z,101341
2016-12-01T10:02:40.259Z,101337
2016-12-01T10:03:40.638Z,101335
2016-12-01T10:04:43.801Z,101339
2016-12-01T10:05:40.173Z,101339
2016-12-01T10:06:41.832Z,101338
2016-12-01T10:07:43.594Z,101332
2016-12-01T10:08:41.210Z,101334
2016-12-01T10:09:40.522Z,101334
2016-12-01T10:10:42.287Z,101338
2016-12-01T10:11:46.052Z,101341
2016-12-01T10:12:40.650Z,101342
2016-12-01T10:13:40.768Z,101335
2016-12-01T10:14:40.188Z,101344
2016-12-01T10:15:40.072Z,101335
2016-12-01T10:16:41.618Z,101338
2016-12-01T10:17:44.130Z,101337
2016-12-01T10:18:42.340Z,101341
2016-12-01T10:19:40.838Z,101336
2016-12-01T10:20:42.994Z,101333
2016-12-01T10:21:41.743Z,101337
2016-12-01T10:22:40.404Z,101338
2016-12-01T10:23:43.265Z,101337
2016-12-01T10:24:43.632Z,101340
2016-12-01T10:25:44.991Z,101333
2016-12-01T10:26:41.854Z,101330
2016-12-01T10:27:40.776Z,101329
2016-12-01T10:28:41.471Z,101331
2016-12-01T10:29:42.000Z,101323
2016-12-01T10:30:40.819Z,101331
2016-12-01T10:31:42.917Z,101327
2016-12-01T10:32:41.020Z,101327
2016-12-01T10:33:40.926Z,101323
2016-12-01T10:34:40.970Z,101327
2016-12-01T10:35:41.737Z,101322
2016-12-01T10:36:43.114Z,101321
2016-12-01T10:37:41.713Z,101320
2016-12-01T10:38:43.763Z,101316
2016-12-01T10:39:42.589Z,101321
2016-12-01T10:40:43.117Z,101310
2016-12-01T10:41:44.981Z,101314
2016-12-01T10:42:44.267Z,101310
2016-12-01T10:43:41.462Z,101310
2016-12-01T10:44:44.478Z,101317
2016-12-01T10:45:42.100Z,101314
2016-12-01T10:46:42.252Z,101313
2016-12-01T10:47:42.985Z,101313
2016-12-01T10:48:42.404Z,101322
2016-12-01T10:49:43.041Z,101319
2016-12-01T10:50:43.124Z,101315
2016-12-01T10:51:42.321Z,101312
2016-12-01T10:52:43.203Z,101317
2016-12-01T10:53:43.970Z,101313
2016-12-01T10:54:44.274Z,101312
2016-12-01T10:55:43.848Z,101306
2016-12-01T10:56:45.046Z,101307
2016-12-01T10:57:43.382Z,101308
2016-12-01T10:58:44.044Z,101316
2016-12-01T10:59:42.102Z,101312
2016-12-01T11:00:43.412Z,101312
2016-12-01T11:01:42.907Z,101309
2016-12-01T11:02:42.935Z,101299
2016-12-01T11:03:44.419Z,101298
2016-12-01T11:04:44.187Z,101298
2016-12-01T11:05:43.875Z,101302
2016-12-01T11:06:43.519Z,101280
2016-12-01T11:07:44.689Z,101288
2016-12-01T11:08:44.109Z,101277
2016-12-01T11:09:44.206Z,101277
2016-12-01T11:10:45.548Z,101286
2016-12-01T11:11:42.893Z,101282
2016-12-01T11:12:42.976Z,101278
2016-12-01T11:13:46.271Z,101274
2016-12-01T11:14:43.115Z,101280
2016-12-01T11:15:47.797Z,101281
2016-12-01T11:16:43.836Z,101276
2016-12-01T11:17:43.119Z,101271
2016-12-01T11:18:45.725Z,101275
2016-12-01T11:19:43.266Z,101271
2016-12-01T11:20:45.597Z,101264
2016-12-01T11:21:44.681Z,101279
2016-12-01T11:22:43.379Z,101276
2016-12-01T11:23:43.416Z,101270
2016-12-01T11:24:45.575Z,101276
2016-12-01T11:25:46.157Z,101271
2016-12-01T11:26:45.549Z,101272
2016-12-01T11:27:43.672Z,101261
2016-12-01T11:28:45.977Z,101262
2016-12-01T11:29:46.210Z,101250
2016-12-01T11:30:43.729Z,101260
2016-12-01T11:31:45.154Z,101254
2016-12-01T11:32:46.189Z,101257
2016-12-01T11:33:46.536Z,101262
2016-12-01T11:34:45.174Z,101253
2016-12-01T11:35:46.837Z,101250
2016-12-01T11:36:46.401Z,101250
2016-12-01T11:37:46.741Z,101250
2016-12-01T11:38:47.441Z,101247
2016-12-01T11:39:44.710Z,101239
2016-12-01T11:40:45.417Z,101240
2016-12-01T11:41:45.441Z,101247
2016-12-01T11:42:44.918Z,101246
2016-12-01T11:43:51.053Z,101246
2016-12-01T11:44:46.205Z,101246
2016-12-01T11:45:45.351Z,101247
2016-12-01T11:46:45.692Z,101233
2016-12-01T11:47:46.969Z,101234
2016-12-01T11:48:48.187Z,101233
2016-12-01T11:49:46.477Z,101227
2016-12-01T11:50:44.536Z,101221
2016-12-01T11:51:45.961Z,101215
2016-12-01T11:52:46.095Z,101206
2016-12-01T11:53:46.071Z,101213
2016-12-01T11:54:45.406Z,101219
2016-12-01T11:55:46.217Z,101209
2016-12-01T11:56:44.840Z,101209
2016-12-01T11:57:47.633Z,101213
2016-12-01T11:58:44.920Z,101209
2016-12-01T11:59:47.697Z,101206
2016-12-01T12:00:46.318Z,101199
2016-12-01T12:01:47.046Z,101206
2016-12-01T12:02:45.146Z,101211
2016-12-01T12:03:48.454Z,101210
2016-12-01T12:04:46.593Z,101206
2016-12-01T12:05:46.657Z,101197
2016-12-01T12:06:46.715Z,101200
2016-12-01T12:07:46.870Z,101203
2016-12-01T12:08:46.497Z,101210
2016-12-01T12:09:48.596Z,101208
2016-12-01T12:10:47.646Z,101209
2016-12-01T12:11:45.643Z,101218
2016-12-01T12:12:47.763Z,101207
2016-12-01T12:13:45.772Z,101203
2016-12-01T12:14:47.170Z,101214
2016-12-01T12:15:48.527Z,101217
2016-12-01T12:16:47.983Z,101215
2016-12-01T12:17:48.409Z,101212
2016-12-01T12:18:47.360Z,101216
2016-12-01T12:19:47.520Z,101216
2016-12-01T12:20:46.093Z,101230
2016-12-01T12:21:48.272Z,101228
2016-12-01T12:22:48.198Z,101225
2016-12-01T12:23:49.255Z,101234
2016-12-01T12:24:47.738Z,101238
2016-12-01T12:25:46.844Z,101236
2016-12-01T12:26:47.734Z,101231
2016-12-01T12:27:48.296Z,101228
2016-12-01T12:28:47.020Z,101228